Time;durP1;ratioP1;P1;durP2;ratioP2;P2;SDS_P1;SDS_P2;PMS_P1;PMS_P2;Temp;Humidity;BMP_temperature;BMP_pressure;BME280_temperature;BME280_humidity;BME280_pressure;Samples;Min_cycle;Max_cycle;Signal;HPM_P1;HPM_P2
2021/06/06 00:00:00;;;;;;;41.07;36.67;;;15.80;99.90;;;;;;5031935;28;20481;-66
2021/06/06 00:02:28;;;;;;;36.07;32.17;;;15.70;99.90;;;;;;5032828;28;20479;-65
2021/06/06 00:04:54;;;;;;;37.23;33.23;;;15.70;99.90;;;;;;5033089;28;20456;-65
2021/06/06 00:07:20;;;;;;;35.83;32.23;;;15.60;99.90;;;;;;5033367;28;20891;-66
2021/06/06 00:09:46;;;;;;;36.10;31.63;;;15.60;99.90;;;;;;5033070;28;20453;-65
2021/06/06 00:12:12;;;;;;;34.80;30.87;;;15.60;99.90;;;;;;5033054;28;20449;-65
2021/06/06 00:14:40;;;;;;;36.70;32.80;;;15.60;99.90;;;;;;5033546;28;20499;-65
2021/06/06 00:17:10;;;;;;;37.63;31.87;;;15.60;99.90;;;;;;5032773;28;20479;-66
2021/06/06 00:19:38;;;;;;;38.80;30.50;;;15.60;99.90;;;;;;5032531;28;20508;-65
2021/06/06 00:22:06;;;;;;;33.40;29.27;;;15.50;99.90;;;;;;5032680;28;20453;-66
2021/06/06 00:24:35;;;;;;;33.80;30.30;;;15.60;99.90;;;;;;5032902;28;20453;-67
2021/06/06 00:27:02;;;;;;;35.07;30.90;;;15.60;99.90;;;;;;5032400;28;20469;-65
2021/06/06 00:29:29;;;;;;;31.33;27.27;;;15.60;99.90;;;;;;5032836;28;20445;-66
2021/06/06 00:31:56;;;;;;;28.73;25.63;;;15.60;99.90;;;;;;5032294;28;20457;-66
2021/06/06 00:34:23;;;;;;;28.93;26.07;;;15.60;99.90;;;;;;5032670;28;20449;-66
2021/06/06 00:36:51;;;;;;;29.77;26.77;;;15.60;99.90;;;;;;5032446;28;20455;-66
2021/06/06 00:39:17;;;;;;;28.33;25.60;;;15.60;99.90;;;;;;5032624;28;20484;-65
2021/06/06 00:41:46;;;;;;;29.10;26.23;;;15.60;99.90;;;;;;5032751;28;20456;-66
2021/06/06 00:44:13;;;;;;;29.40;26.60;;;15.60;99.90;;;;;;5031967;28;20449;-66
2021/06/06 00:46:40;;;;;;;30.03;27.23;;;15.60;99.90;;;;;;5031872;28;20460;-66
2021/06/06 00:49:07;;;;;;;29.80;26.93;;;15.60;99.90;;;;;;5031812;28;20836;-65
2021/06/06 00:51:40;;;;;;;29.73;26.90;;;15.60;99.90;;;;;;5031318;28;20507;-65
2021/06/06 00:54:13;;;;;;;29.37;26.57;;;15.60;99.90;;;;;;5031264;28;20452;-65
2021/06/06 00:56:41;;;;;;;28.97;26.10;;;15.60;99.90;;;;;;5031507;28;20445;-65
2021/06/06 00:59:07;;;;;;;27.40;24.80;;;15.60;99.90;;;;;;5031089;28;20515;-65
2021/06/06 01:01:34;;;;;;;29.07;25.90;;;15.60;99.90;;;;;;5031363;28;20453;-65
2021/06/06 01:04:01;;;;;;;29.70;26.67;;;15.60;99.90;;;;;;5031353;28;20448;-65
2021/06/06 01:06:31;;;;;;;29.67;26.70;;;15.60;99.90;;;;;;5032040;28;20452;-65
2021/06/06 01:08:58;;;;;;;25.60;23.20;;;15.50;99.90;;;;;;5034908;28;20457;-65
2021/06/06 01:11:32;;;;;;;26.10;23.60;;;15.60;99.90;;;;;;5034004;28;20479;-65
2021/06/06 01:14:02;;;;;;;28.33;23.70;;;15.50;99.90;;;;;;5035260;28;20507;-65
2021/06/06 01:16:33;;;;;;;27.30;24.03;;;15.60;99.90;;;;;;5035278;28;20441;-65
2021/06/06 01:19:05;;;;;;;26.80;24.20;;;15.50;99.90;;;;;;5034944;28;20855;-65
2021/06/06 01:21:45;;;;;;;30.47;26.10;;;15.50;99.90;;;;;;5034993;28;20951;-65
2021/06/06 01:24:20;;;;;;;25.43;22.83;;;15.50;99.90;;;;;;5034972;28;20445;-65
2021/06/06 01:26:50;;;;;;;25.13;22.73;;;15.60;99.90;;;;;;5034978;28;20444;-65
2021/06/06 01:29:26;;;;;;;25.80;23.17;;;15.50;99.90;;;;;;5034750;28;20443;-65
2021/06/06 01:31:56;;;;;;;24.33;21.93;;;15.50;99.90;;;;;;5034778;28;20448;-65
2021/06/06 01:34:25;;;;;;;25.20;22.50;;;15.50;99.90;;;;;;5034956;28;20445;-65
2021/06/06 01:36:57;;;;;;;26.47;23.90;;;15.60;99.90;;;;;;5034739;28;20436;-65
2021/06/06 01:39:29;;;;;;;26.70;24.10;;;15.50;99.90;;;;;;5034812;28;20485;-65
2021/06/06 01:41:59;;;;;;;27.20;24.50;;;15.60;99.90;;;;;;5037169;28;20507;-66
2021/06/06 01:44:28;;;;;;;25.90;23.40;;;15.50;99.90;;;;;;5036952;28;20823;-65
2021/06/06 01:46:58;;;;;;;27.00;24.50;;;15.50;99.90;;;;;;5036347;28;20476;-65
2021/06/06 01:49:25;;;;;;;29.47;26.30;;;15.60;99.90;;;;;;5036542;28;20448;-66
2021/06/06 01:51:54;;;;;;;26.07;23.77;;;15.50;99.90;;;;;;5036190;28;20453;-66
2021/06/06 01:54:23;;;;;;;26.90;24.50;;;15.50;99.90;;;;;;5036093;28;20803;-65
2021/06/06 01:56:53;;;;;;;29.07;26.37;;;15.50;99.90;;;;;;5036378;28;20445;-66
2021/06/06 01:59:25;;;;;;;29.77;26.47;;;15.50;99.90;;;;;;5036115;28;20827;-65
2021/06/06 02:01:52;;;;;;;27.80;25.10;;;15.50;99.90;;;;;;5036218;28;20959;-66
2021/06/06 02:04:19;;;;;;;27.93;25.10;;;15.50;99.90;;;;;;5036565;28;20456;-66
2021/06/06 02:06:49;;;;;;;27.00;24.37;;;15.50;99.90;;;;;;5035472;28;20494;-66
2021/06/06 02:09:19;;;;;;;27.43;24.70;;;15.40;99.90;;;;;;5035430;28;20476;-66
2021/06/06 02:11:48;;;;;;;27.33;24.53;;;15.40;99.90;;;;;;5035881;28;20460;-65
2021/06/06 02:14:19;;;;;;;31.40;27.60;;;15.50;99.90;;;;;;5035386;28;20440;-65
2021/06/06 02:16:48;;;;;;;26.97;24.40;;;15.50;99.90;;;;;;5034625;28;20862;-65
2021/06/06 02:19:14;;;;;;;28.50;26.03;;;15.50;99.90;;;;;;5033100;28;20480;-65
2021/06/06 02:21:40;;;;;;;29.27;26.23;;;15.50;99.90;;;;;;5033994;28;20823;-65
2021/06/06 02:24:07;;;;;;;27.73;24.97;;;15.40;99.90;;;;;;5033974;28;21001;-65
2021/06/06 02:26:40;;;;;;;27.33;24.70;;;15.40;99.90;;;;;;5033854;28;20441;-65
2021/06/06 02:29:13;;;;;;;24.60;21.97;;;15.30;99.90;;;;;;5033569;28;20448;-65
2021/06/06 02:31:46;;;;;;;26.90;24.10;;;15.30;99.90;;;;;;5033843;28;20453;-65
2021/06/06 02:34:18;;;;;;;25.70;22.87;;;15.30;99.90;;;;;;5033926;28;20624;-65
2021/06/06 02:36:51;;;;;;;29.10;26.30;;;15.20;99.90;;;;;;5033520;28;20490;-65
2021/06/06 02:39:21;;;;;;;25.90;23.50;;;15.20;99.90;;;;;;5033469;28;20476;-65
2021/06/06 02:41:51;;;;;;;26.93;24.07;;;15.20;99.90;;;;;;5033497;28;20455;-65
2021/06/06 02:44:20;;;;;;;31.40;28.30;;;15.20;99.90;;;;;;5033483;28;20448;-65
2021/06/06 02:46:50;;;;;;;33.27;30.10;;;15.20;99.90;;;;;;5033368;28;20445;-65
2021/06/06 02:49:20;;;;;;;28.37;25.57;;;15.20;99.90;;;;;;5033233;28;20445;-65
2021/06/06 02:51:50;;;;;;;30.40;27.27;;;15.20;99.90;;;;;;5033328;28;20511;-65
2021/06/06 02:54:20;;;;;;;31.23;27.90;;;15.20;99.90;;;;;;5033547;28;20503;-65
2021/06/06 02:56:50;;;;;;;28.07;25.40;;;15.20;99.90;;;;;;5033298;28;20445;-65
2021/06/06 02:59:21;;;;;;;32.70;28.80;;;15.20;99.90;;;;;;5033011;28;20488;-65
2021/06/06 03:01:51;;;;;;;30.20;26.97;;;15.20;99.90;;;;;;5033259;28;20453;-65
2021/06/06 03:04:21;;;;;;;31.10;27.80;;;15.20;99.90;;;;;;5033299;28;20479;-64
2021/06/06 03:06:52;;;;;;;30.13;27.13;;;15.10;99.90;;;;;;5033168;28;20445;-65
2021/06/06 03:09:19;;;;;;;31.80;28.40;;;15.10;99.90;;;;;;5032950;28;20449;-64
2021/06/06 03:11:48;;;;;;;31.50;28.40;;;15.10;99.90;;;;;;5033040;28;20479;-65
2021/06/06 03:14:21;;;;;;;34.60;31.10;;;15.10;99.90;;;;;;5032837;28;20445;-65
2021/06/06 03:16:56;;;;;;;28.73;25.87;;;15.10;99.90;;;;;;5032981;28;20506;-65
2021/06/06 03:19:24;;;;;;;32.40;26.90;;;15.10;99.90;;;;;;5032634;28;20475;-65
2021/06/06 03:21:52;;;;;;;27.37;24.37;;;15.10;99.90;;;;;;5032800;28;20445;-65
2021/06/06 03:24:27;;;;;;;25.40;23.00;;;15.00;99.90;;;;;;5032819;28;20510;-64
2021/06/06 03:26:55;;;;;;;26.53;23.17;;;15.00;99.90;;;;;;5032649;28;20452;-64
2021/06/06 03:29:26;;;;;;;32.20;27.40;;;14.90;99.90;;;;;;5032412;28;20831;-65
2021/06/06 03:31:56;;;;;;;27.70;25.13;;;15.00;99.90;;;;;;5032409;28;20452;-66
2021/06/06 03:34:23;;;;;;;30.20;27.10;;;15.00;99.90;;;;;;5033017;28;20456;-65
2021/06/06 03:36:49;;;;;;;33.67;30.23;;;14.90;99.90;;;;;;5032783;28;20453;-66
2021/06/06 03:39:19;;;;;;;30.83;27.57;;;15.00;99.90;;;;;;5032726;28;21026;-65
2021/06/06 03:41:46;;;;;;;33.30;30.00;;;15.00;99.90;;;;;;5033673;28;20457;-66
2021/06/06 03:44:13;;;;;;;31.17;28.10;;;15.00;99.90;;;;;;5033716;28;20461;-66
2021/06/06 03:46:39;;;;;;;34.20;28.93;;;15.00;99.90;;;;;;5032981;28;20488;-65
2021/06/06 03:49:07;;;;;;;31.30;28.27;;;15.00;99.90;;;;;;5033092;28;20484;-65
2021/06/06 03:51:35;;;;;;;35.70;31.07;;;15.00;99.90;;;;;;5033222;28;20748;-65
2021/06/06 03:54:02;;;;;;;34.53;30.73;;;14.90;99.90;;;;;;5033018;28;20498;-65
2021/06/06 03:56:28;;;;;;;32.37;28.70;;;15.00;99.90;;;;;;5032942;28;20449;-65
2021/06/06 03:58:55;;;;;;;37.20;31.40;;;15.00;99.90;;;;;;5032148;28;20488;-65
2021/06/06 04:01:21;;;;;;;34.70;31.33;;;15.00;99.90;;;;;;5032354;28;20448;-65
2021/06/06 04:03:48;;;;;;;33.70;30.10;;;15.00;99.90;;;;;;5032026;28;20495;-64
2021/06/06 04:06:16;;;;;;;35.33;29.27;;;15.00;99.90;;;;;;5032031;28;20445;-65
2021/06/06 04:08:42;;;;;;;35.87;31.50;;;15.00;99.90;;;;;;5031947;28;20460;-65
2021/06/06 04:11:08;;;;;;;34.90;31.60;;;15.00;99.90;;;;;;5032101;28;20449;-64
2021/06/06 04:13:34;;;;;;;34.90;31.30;;;15.00;99.90;;;;;;5031724;28;20445;-65
2021/06/06 04:16:01;;;;;;;34.03;30.37;;;15.00;99.90;;;;;;5031894;28;20967;-65
2021/06/06 04:18:31;;;;;;;35.37;31.73;;;15.00;99.90;;;;;;5031435;28;20465;-65
2021/06/06 04:20:59;;;;;;;43.13;35.80;;;14.90;99.90;;;;;;5031885;28;21075;-65
2021/06/06 04:23:27;;;;;;;42.97;32.33;;;14.90;99.90;;;;;;5031834;28;20456;-64
2021/06/06 04:25:54;;;;;;;46.47;37.50;;;14.80;99.90;;;;;;5031642;28;20449;-64
2021/06/06 04:28:22;;;;;;;41.37;35.87;;;14.90;99.90;;;;;;5031332;28;20887;-64
2021/06/06 04:30:49;;;;;;;41.83;34.40;;;14.80;99.90;;;;;;5031674;28;20456;-64
2021/06/06 04:33:23;;;;;;;42.40;34.73;;;14.70;99.90;;;;;;5157282;27;20342;-65
2021/06/06 04:35:50;;;;;;;44.63;35.10;;;14.70;99.90;;;;;;5127930;28;20429;-65
2021/06/06 04:38:19;;;;;;;44.07;38.20;;;14.70;99.90;;;;;;5129614;28;20521;-66
2021/06/06 04:40:47;;;;;;;42.73;36.77;;;14.70;99.90;;;;;;5130023;27;20440;-66
2021/06/06 04:43:14;;;;;;;44.23;34.87;;;14.70;99.90;;;;;;5129962;27;20480;-66
2021/06/06 04:45:40;;;;;;;46.30;37.30;;;14.80;99.90;;;;;;5130279;27;20440;-65
2021/06/06 04:48:10;;;;;;;41.97;36.73;;;14.80;99.90;;;;;;5129494;27;20471;-65
2021/06/06 04:50:38;;;;;;;45.23;37.77;;;14.80;99.90;;;;;;5129453;27;20468;-65
2021/06/06 04:53:04;;;;;;;41.83;31.80;;;14.90;99.90;;;;;;5129559;27;20478;-65
2021/06/06 04:55:31;;;;;;;44.47;37.00;;;14.90;99.90;;;;;;5129467;27;20440;-65
2021/06/06 04:57:57;;;;;;;42.23;33.70;;;14.90;99.90;;;;;;5129541;27;20460;-65
2021/06/06 05:00:26;;;;;;;41.10;32.20;;;14.90;99.90;;;;;;5129346;27;20807;-65
2021/06/06 05:02:53;;;;;;;46.17;35.00;;;14.90;99.90;;;;;;5129369;27;20476;-65
2021/06/06 05:05:20;;;;;;;44.13;35.77;;;15.00;99.90;;;;;;5129298;27;20813;-65
2021/06/06 05:07:53;;;;;;;39.57;35.47;;;15.00;99.90;;;;;;5129228;27;21003;-65
2021/06/06 05:10:20;;;;;;;41.93;33.17;;;15.00;99.90;;;;;;5129180;27;20916;-65
2021/06/06 05:12:47;;;;;;;42.67;35.30;;;15.00;99.90;;;;;;5129187;27;20444;-65
2021/06/06 05:15:14;;;;;;;37.93;33.27;;;15.00;99.90;;;;;;5129081;27;20433;-65
2021/06/06 05:17:40;;;;;;;42.20;34.70;;;15.00;99.90;;;;;;5128887;27;20465;-66
2021/06/06 05:20:08;;;;;;;49.90;37.33;;;14.90;99.90;;;;;;5128743;27;20448;-65
2021/06/06 05:22:34;;;;;;;44.00;34.90;;;14.90;99.90;;;;;;5128936;27;20480;-65
2021/06/06 05:25:02;;;;;;;43.30;36.20;;;14.90;99.90;;;;;;5128958;27;20794;-65
2021/06/06 05:27:28;;;;;;;42.73;38.03;;;14.90;99.90;;;;;;5128753;27;20456;-65
2021/06/06 05:29:54;;;;;;;49.07;38.43;;;14.90;99.90;;;;;;5128630;27;20493;-65
2021/06/06 05:32:21;;;;;;;49.30;38.70;;;15.00;99.90;;;;;;5128630;27;20829;-65
2021/06/06 05:34:47;;;;;;;49.23;38.60;;;15.00;99.90;;;;;;5128632;27;20436;-65
2021/06/06 05:37:14;;;;;;;47.27;37.37;;;14.90;99.90;;;;;;5128565;27;20457;-65
2021/06/06 05:39:40;;;;;;;55.63;43.60;;;15.00;99.90;;;;;;5128437;27;20443;-65
2021/06/06 05:42:09;;;;;;;45.93;35.83;;;15.00;99.90;;;;;;5128613;27;20483;-65
2021/06/06 05:44:35;;;;;;;47.07;36.03;;;15.00;99.90;;;;;;5115796;27;20448;-65
2021/06/06 05:47:02;;;;;;;46.40;37.40;;;15.00;99.90;;;;;;5115004;28;20465;-64
2021/06/06 05:49:29;;;;;;;50.13;36.90;;;15.00;99.90;;;;;;5114576;28;20453;-63
2021/06/06 05:51:55;;;;;;;45.60;35.87;;;15.00;99.90;;;;;;5114984;28;20468;-63
2021/06/06 05:54:21;;;;;;;50.60;37.20;;;15.00;99.90;;;;;;5114960;28;20961;-63
2021/06/06 05:56:47;;;;;;;43.50;36.17;;;15.10;99.90;;;;;;5114823;28;20448;-67
2021/06/06 05:59:15;;;;;;;45.03;38.73;;;15.20;99.90;;;;;;5114204;28;20442;-66
2021/06/06 06:01:41;;;;;;;50.63;36.43;;;15.20;99.90;;;;;;5114744;28;20833;-64
2021/06/06 06:04:08;;;;;;;46.30;36.97;;;15.20;99.90;;;;;;5114606;28;20441;-64
2021/06/06 06:06:34;;;;;;;41.50;36.17;;;15.20;99.90;;;;;;5114755;28;20445;-66
2021/06/06 06:09:01;;;;;;;41.97;37.37;;;15.30;99.90;;;;;;5114421;28;20601;-64
2021/06/06 06:11:28;;;;;;;39.47;35.20;;;15.30;99.90;;;;;;5114762;28;20468;-66
2021/06/06 06:13:54;;;;;;;42.17;37.57;;;15.40;99.90;;;;;;5111286;28;20498;-65
2021/06/06 06:16:26;;;;;;;40.00;35.70;;;15.40;99.90;;;;;;5102680;28;20509;-67
2021/06/06 06:18:53;;;;;;;38.73;34.60;;;15.50;99.90;;;;;;5102594;28;20465;-65
2021/06/06 06:21:21;;;;;;;43.07;35.57;;;15.50;99.90;;;;;;5102680;28;20445;-66
2021/06/06 06:23:48;;;;;;;40.70;36.40;;;15.60;99.90;;;;;;5102490;28;20441;-65
2021/06/06 06:26:15;;;;;;;41.43;36.37;;;15.60;99.90;;;;;;5102624;28;20445;-67
2021/06/06 06:28:46;;;;;;;39.43;35.27;;;15.70;99.90;;;;;;5102227;28;20810;-66
2021/06/06 06:31:13;;;;;;;42.20;36.90;;;15.70;99.90;;;;;;5102426;28;21247;-66
2021/06/06 06:33:42;;;;;;;42.97;35.07;;;15.80;99.90;;;;;;5102444;28;20438;-66
2021/06/06 06:36:17;;;;;;;38.73;34.47;;;15.80;99.90;;;;;;5102361;28;21267;-66
2021/06/06 06:38:43;;;;;;;38.93;34.63;;;15.80;99.90;;;;;;5101974;28;20550;-67
2021/06/06 06:41:10;;;;;;;41.43;36.40;;;15.70;99.90;;;;;;5102138;28;20456;-66
2021/06/06 06:43:36;;;;;;;43.40;38.37;;;15.70;99.90;;;;;;5102894;28;20445;-66
2021/06/06 06:46:02;;;;;;;38.90;35.13;;;15.70;99.90;;;;;;5102480;28;20441;-66
2021/06/06 06:48:30;;;;;;;48.57;40.30;;;15.70;99.90;;;;;;5101852;28;20465;-67
2021/06/06 06:50:59;;;;;;;39.43;35.20;;;15.80;99.90;;;;;;5101988;28;20452;-66
2021/06/06 06:53:27;;;;;;;40.40;36.20;;;15.90;99.90;;;;;;5102076;28;20449;-67
2021/06/06 06:55:53;;;;;;;37.23;33.33;;;16.00;99.90;;;;;;5100823;28;20452;-67
2021/06/06 06:58:20;;;;;;;39.00;33.27;;;16.10;99.90;;;;;;5101691;28;20465;-67
2021/06/06 07:00:48;;;;;;;38.33;34.63;;;16.10;99.90;;;;;;5101581;28;21028;-67
2021/06/06 07:03:18;;;;;;;39.27;35.40;;;16.30;99.90;;;;;;5101637;28;20481;-67
2021/06/06 07:05:44;;;;;;;37.37;33.63;;;16.50;99.90;;;;;;5101638;28;20473;-67
2021/06/06 07:08:17;;;;;;;39.53;35.00;;;16.50;99.90;;;;;;5101425;28;21022;-67
2021/06/06 07:10:44;;;;;;;40.20;35.97;;;16.50;99.90;;;;;;5101397;28;21309;-66
2021/06/06 07:13:11;;;;;;;44.20;38.80;;;16.40;99.90;;;;;;5101559;28;20494;-66
2021/06/06 07:15:38;;;;;;;43.30;36.77;;;16.40;99.90;;;;;;5101650;28;20526;-66
2021/06/06 07:18:07;;;;;;;50.53;41.77;;;16.30;99.90;;;;;;5101446;28;20461;-66
2021/06/06 07:20:35;;;;;;;47.47;38.57;;;16.30;99.90;;;;;;5101327;28;20452;-66
2021/06/06 07:23:03;;;;;;;48.60;38.70;;;16.30;99.90;;;;;;5101279;28;21100;-67
2021/06/06 07:25:30;;;;;;;42.07;37.00;;;16.40;99.90;;;;;;5101332;28;21134;-66
2021/06/06 07:27:57;;;;;;;45.27;40.10;;;16.30;99.90;;;;;;5101298;28;20472;-66
2021/06/06 07:30:27;;;;;;;42.87;38.20;;;16.40;99.90;;;;;;5101193;28;20449;-66
2021/06/06 07:32:53;;;;;;;43.47;38.77;;;16.40;99.90;;;;;;5101155;28;20453;-66
2021/06/06 07:35:22;;;;;;;44.17;35.53;;;16.40;99.90;;;;;;5101369;28;21112;-65
2021/06/06 07:37:48;;;;;;;48.10;41.53;;;16.30;99.90;;;;;;5101086;28;21045;-66
2021/06/06 07:40:16;;;;;;;51.73;40.00;;;16.00;99.90;;;;;;5101066;28;20456;-66
2021/06/06 07:42:43;;;;;;;53.37;39.90;;;15.90;99.90;;;;;;5101592;28;20853;-65
2021/06/06 07:45:13;;;;;;;49.63;39.90;;;15.80;99.90;;;;;;5101146;28;20445;-68
2021/06/06 07:47:40;;;;;;;51.03;41.20;;;15.90;99.90;;;;;;5100990;28;20466;-66
2021/06/06 07:50:08;;;;;;;46.00;41.00;;;15.90;99.90;;;;;;5100872;27;20453;-66
2021/06/06 07:52:35;;;;;;;43.37;36.33;;;15.80;99.90;;;;;;5101150;28;20441;-67
2021/06/06 07:55:03;;;;;;;49.53;39.53;;;15.80;99.90;;;;;;5101464;28;20449;-68
2021/06/06 07:57:29;;;;;;;44.30;38.70;;;15.80;99.90;;;;;;5101379;28;21057;-66
2021/06/06 07:59:57;;;;;;;50.43;38.40;;;15.80;99.90;;;;;;5100732;28;20453;-68
2021/06/06 08:02:23;;;;;;;48.60;39.30;;;15.90;99.90;;;;;;5100814;28;20481;-66
2021/06/06 08:04:49;;;;;;;47.03;36.20;;;16.00;99.90;;;;;;5100729;28;21001;-66
2021/06/06 08:07:16;;;;;;;40.57;35.20;;;16.00;99.90;;;;;;5100336;28;20465;-66
2021/06/06 08:09:42;;;;;;;44.23;38.53;;;16.10;99.90;;;;;;5100570;28;20453;-67
2021/06/06 08:12:09;;;;;;;39.83;35.47;;;16.20;99.90;;;;;;5100543;28;20445;-66
2021/06/06 08:14:35;;;;;;;41.20;34.67;;;16.40;99.90;;;;;;5100513;28;20448;-67
2021/06/06 08:17:03;;;;;;;40.37;35.40;;;16.50;99.90;;;;;;5100459;28;20445;-66
2021/06/06 08:19:29;;;;;;;40.43;35.47;;;16.50;99.90;;;;;;5100261;28;20559;-66
2021/06/06 08:21:56;;;;;;;44.27;39.47;;;16.70;99.90;;;;;;5100483;28;20493;-67
2021/06/06 08:24:22;;;;;;;39.80;35.07;;;16.60;99.90;;;;;;5100424;28;20449;-67
2021/06/06 08:26:49;;;;;;;42.83;38.33;;;16.60;99.90;;;;;;5100412;28;20444;-66
2021/06/06 08:29:15;;;;;;;43.60;39.17;;;16.70;99.90;;;;;;5100142;27;20453;-67
2021/06/06 08:31:44;;;;;;;45.20;40.40;;;16.70;99.90;;;;;;5100276;28;20453;-68
2021/06/06 08:34:12;;;;;;;48.30;43.20;;;16.70;99.90;;;;;;5100296;28;20447;-66
2021/06/06 08:36:41;;;;;;;49.20;43.47;;;16.70;99.90;;;;;;5100125;28;21097;-67
2021/06/06 08:39:10;;;;;;;56.40;47.80;;;16.50;99.90;;;;;;5099963;28;20440;-68
2021/06/06 08:41:44;;;;;;;52.43;44.83;;;16.40;99.90;;;;;;5100160;28;20805;-69
2021/06/06 08:44:16;;;;;;;54.13;45.90;;;16.30;99.90;;;;;;5100541;28;20453;-68
2021/06/06 08:46:52;;;;;;;50.80;43.67;;;16.30;99.90;;;;;;5100230;28;20445;-66
2021/06/06 08:49:20;;;;;;;54.97;45.10;;;16.20;99.90;;;;;;5100122;28;20445;-69
2021/06/06 08:51:50;;;;;;;53.93;46.67;;;16.20;99.90;;;;;;5100247;28;20494;-70
2021/06/06 08:54:23;;;;;;;56.73;44.67;;;16.20;99.90;;;;;;5100365;28;20445;-68
2021/06/06 08:56:54;;;;;;;45.70;40.33;;;16.30;99.90;;;;;;5100133;28;20456;-68
2021/06/06 08:59:27;;;;;;;51.77;41.20;;;16.40;99.90;;;;;;5099874;28;20445;-70
2021/06/06 09:02:08;;;;;;;49.93;40.83;;;16.50;99.90;;;;;;5101819;28;21194;-69
2021/06/06 09:04:36;;;;;;;43.13;38.27;;;16.60;99.90;;;;;;5103576;28;20445;-69
2021/06/06 09:07:06;;;;;;;51.77;43.87;;;16.50;99.90;;;;;;5103727;28;20461;-70
2021/06/06 09:09:36;;;;;;;46.90;41.23;;;16.60;99.90;;;;;;5102523;28;20453;-69
2021/06/06 09:12:05;;;;;;;46.10;39.70;;;16.70;99.90;;;;;;5100457;28;20445;-68
2021/06/06 09:14:32;;;;;;;43.23;38.83;;;16.80;99.90;;;;;;5100209;28;20441;-68
2021/06/06 09:17:03;;;;;;;45.17;40.27;;;17.00;99.90;;;;;;5100207;28;20449;-69
2021/06/06 09:19:43;;;;;;;45.03;39.07;;;17.30;99.90;;;;;;5102894;28;20456;-68
2021/06/06 09:22:09;;;;;;;41.07;37.07;;;17.40;99.90;;;;;;5103864;28;20488;-67
2021/06/06 09:24:41;;;;;;;44.07;39.83;;;17.50;99.90;;;;;;5103991;27;21222;-68
2021/06/06 09:27:18;;;;;;;40.70;36.60;;;17.50;99.90;;;;;;5103716;28;20489;-68
2021/06/06 09:29:45;;;;;;;42.07;37.87;;;17.60;99.90;;;;;;5103696;28;20484;-66
2021/06/06 09:32:14;;;;;;;39.47;35.57;;;17.40;99.90;;;;;;5103807;28;20464;-68
2021/06/06 09:34:52;;;;;;;40.93;36.80;;;17.40;99.90;;;;;;5103777;28;20456;-68
2021/06/06 09:37:20;;;;;;;42.10;37.80;;;17.30;99.90;;;;;;5103476;28;20496;-68
2021/06/06 09:39:52;;;;;;;40.93;36.80;;;17.40;99.90;;;;;;5103426;28;20441;-66
2021/06/06 09:42:25;;;;;;;41.87;37.57;;;17.40;99.90;;;;;;5103395;28;20477;-69
2021/06/06 09:45:09;;;;;;;39.20;35.30;;;17.40;99.90;;;;;;5103762;28;20925;-68
2021/06/06 09:47:36;;;;;;;40.40;36.60;;;17.50;99.90;;;;;;5103536;28;20568;-68
2021/06/06 09:50:11;;;;;;;43.57;39.37;;;17.80;99.90;;;;;;5103191;28;20453;-68
2021/06/06 09:52:47;;;;;;;41.57;37.60;;;17.80;99.90;;;;;;5103417;28;20448;-67
2021/06/06 09:55:23;;;;;;;43.93;39.30;;;17.80;99.90;;;;;;5103528;28;20491;-69
2021/06/06 09:57:52;;;;;;;40.60;36.57;;;17.80;99.90;;;;;;5104182;27;21145;-68
2021/06/06 10:00:34;;;;;;;40.87;36.83;;;17.80;99.90;;;;;;5103399;28;21284;-68
2021/06/06 10:03:06;;;;;;;41.43;37.03;;;17.80;99.90;;;;;;5102969;28;20481;-68
2021/06/06 10:05:35;;;;;;;41.97;37.67;;;17.80;99.90;;;;;;5103057;28;20481;-67
2021/06/06 10:08:05;;;;;;;43.10;38.93;;;17.70;99.90;;;;;;5102941;28;20549;-67
2021/06/06 10:10:35;;;;;;;41.73;37.63;;;17.70;99.90;;;;;;5102836;27;20442;-68
2021/06/06 10:13:05;;;;;;;40.57;36.33;;;17.60;99.90;;;;;;5103133;28;21161;-67
2021/06/06 10:15:43;;;;;;;42.37;37.73;;;17.70;99.90;;;;;;5102765;28;20445;-67
2021/06/06 10:18:14;;;;;;;40.80;36.97;;;17.90;99.90;;;;;;5102602;28;20904;-66
2021/06/06 10:20:46;;;;;;;40.47;35.87;;;17.70;99.90;;;;;;5102633;28;20448;-68
2021/06/06 10:23:17;;;;;;;43.93;39.40;;;17.60;99.90;;;;;;5102607;28;20539;-67
2021/06/06 10:25:48;;;;;;;39.20;35.20;;;17.80;99.90;;;;;;5102603;28;20445;-67
2021/06/06 10:28:18;;;;;;;39.50;35.60;;;18.10;99.90;;;;;;5102353;28;20957;-68
2021/06/06 10:30:49;;;;;;;41.47;37.17;;;18.20;99.90;;;;;;5102030;28;20450;-68
2021/06/06 10:33:22;;;;;;;38.93;34.60;;;18.20;99.90;;;;;;5102218;28;20456;-70
2021/06/06 10:35:50;;;;;;;40.53;36.53;;;18.20;99.90;;;;;;5102507;28;20445;-67
2021/06/06 10:38:18;;;;;;;38.90;35.00;;;17.80;99.90;;;;;;5102359;28;20469;-69
2021/06/06 10:40:47;;;;;;;40.17;36.20;;;17.80;99.90;;;;;;5102024;28;20468;-69
2021/06/06 10:43:25;;;;;;;39.10;35.17;;;17.80;99.90;;;;;;5102432;28;21076;-69
2021/06/06 10:45:59;;;;;;;36.53;33.33;;;18.00;99.90;;;;;;5102983;28;20453;-68
2021/06/06 10:48:30;;;;;;;39.93;36.07;;;18.00;99.90;;;;;;5102371;28;20471;-69
2021/06/06 10:51:09;;;;;;;41.90;37.27;;;18.20;99.90;;;;;;5101877;28;20449;-68
2021/06/06 10:53:36;;;;;;;37.03;33.60;;;18.40;99.90;;;;;;5102061;28;20445;-68
2021/06/06 10:56:10;;;;;;;36.03;32.80;;;18.50;99.90;;;;;;5102020;28;21127;-69
2021/06/06 10:58:44;;;;;;;34.53;31.23;;;18.50;99.90;;;;;;5102002;28;20468;-69
2021/06/06 11:01:24;;;;;;;39.00;35.30;;;18.70;99.90;;;;;;5101763;28;20445;-69
2021/06/06 11:03:54;;;;;;;35.23;31.53;;;18.80;99.90;;;;;;5101478;28;20512;-68
2021/06/06 11:06:25;;;;;;;36.23;32.70;;;18.90;99.90;;;;;;5101946;27;20453;-68
2021/06/06 11:08:52;;;;;;;33.50;30.83;;;19.10;99.90;;;;;;5101759;28;21057;-68
2021/06/06 11:11:30;;;;;;;31.50;29.10;;;19.60;99.90;;;;;;5101548;28;20942;-68
2021/06/06 11:14:02;;;;;;;34.53;31.53;;;19.90;99.90;;;;;;5101616;28;20559;-68
2021/06/06 11:16:37;;;;;;;34.07;31.00;;;20.40;99.90;;;;;;5101608;28;20520;-68
2021/06/06 11:19:13;;;;;;;32.47;29.70;;;20.40;99.90;;;;;;5101354;28;21270;-71
2021/06/06 11:21:48;;;;;;;33.27;30.47;;;20.00;99.90;;;;;;5101561;28;20457;-68
2021/06/06 11:24:25;;;;;;;33.13;30.23;;;19.70;99.90;;;;;;5101357;28;20433;-69
2021/06/06 11:27:13;;;;;;;33.57;30.27;;;19.50;99.90;;;;;;5101208;28;21180;-68
2021/06/06 11:29:46;;;;;;;35.33;32.30;;;19.70;99.90;;;;;;5098187;28;20450;-68
2021/06/06 11:32:23;;;;;;;33.33;30.60;;;20.40;99.90;;;;;;5101132;28;20930;-68
2021/06/06 11:35:11;;;;;;;30.67;28.20;;;20.70;99.90;;;;;;5101152;28;20497;-69
2021/06/06 11:37:42;;;;;;;33.93;31.07;;;20.80;99.90;;;;;;5100726;28;20484;-70
2021/06/06 11:40:27;;;;;;;33.10;30.50;;;20.60;99.90;;;;;;5101041;28;20453;-70
2021/06/06 11:42:58;;;;;;;32.60;29.90;;;20.40;99.90;;;;;;5100680;28;20477;-68
2021/06/06 11:45:27;;;;;;;32.67;29.80;;;20.00;99.90;;;;;;5101035;28;20456;-70
2021/06/06 11:47:57;;;;;;;31.87;29.07;;;19.80;99.90;;;;;;5100734;28;20477;-68
2021/06/06 11:50:28;;;;;;;33.20;30.53;;;19.70;99.90;;;;;;5100903;28;21114;-68
2021/06/06 11:53:02;;;;;;;33.67;30.70;;;19.60;99.90;;;;;;5100873;28;21043;-68
2021/06/06 11:55:34;;;;;;;32.50;29.73;;;19.90;99.90;;;;;;5100812;28;20452;-68
2021/06/06 11:58:08;;;;;;;32.90;30.10;;;20.10;99.90;;;;;;5100702;28;20962;-67
2021/06/06 12:00:37;;;;;;;33.33;30.53;;;20.00;99.90;;;;;;5100564;28;20491;-68
2021/06/06 12:03:14;;;;;;;32.03;29.40;;;19.90;99.90;;;;;;5100624;28;20517;-67
2021/06/06 12:05:56;;;;;;;37.43;34.03;;;19.80;99.90;;;;;;5100705;28;20445;-68
2021/06/06 12:08:32;;;;;;;32.63;29.97;;;19.50;99.90;;;;;;5100427;28;21367;-68
2021/06/06 12:11:01;;;;;;;36.33;33.13;;;19.60;99.90;;;;;;5100409;28;20449;-68
2021/06/06 12:13:33;;;;;;;34.87;31.87;;;19.60;99.90;;;;;;5100581;28;20842;-69
2021/06/06 12:16:06;;;;;;;34.90;32.10;;;19.60;99.90;;;;;;5100512;28;20448;-68
2021/06/06 12:18:33;;;;;;;35.30;31.80;;;19.50;99.90;;;;;;5100727;28;21081;-69
2021/06/06 12:21:02;;;;;;;35.87;32.73;;;19.40;99.90;;;;;;5100254;28;20452;-69
2021/06/06 12:23:35;;;;;;;33.90;30.70;;;19.40;99.90;;;;;;5100440;28;20481;-69
2021/06/06 12:26:12;;;;;;;31.87;29.23;;;19.60;99.90;;;;;;5100629;28;20964;-71
2021/06/06 12:28:43;;;;;;;34.53;31.47;;;19.70;99.90;;;;;;5100296;28;20472;-68
2021/06/06 12:31:22;;;;;;;34.53;31.53;;;19.70;99.90;;;;;;5100007;28;20442;-69
2021/06/06 12:33:49;;;;;;;34.23;31.33;;;19.60;99.90;;;;;;5100422;28;21243;-68
2021/06/06 12:36:18;;;;;;;35.27;32.17;;;19.20;99.90;;;;;;5100241;28;20959;-69
2021/06/06 12:38:48;;;;;;;35.33;32.37;;;19.10;99.90;;;;;;5100190;28;20547;-69